createdAt,value
2022-07-29T00:00:00.353Z,19.1
2022-07-29T00:05:00.147Z,19
2022-07-29T00:10:00.246Z,19
2022-07-29T00:15:00.202Z,19
2022-07-29T00:20:00.203Z,18.9
2022-07-29T00:25:00.127Z,18.9
2022-07-29T00:30:00.215Z,18.8
2022-07-29T00:35:00.239Z,18.8
2022-07-29T00:40:00.258Z,18.8
2022-07-29T00:45:00.124Z,18.7
2022-07-29T00:50:00.215Z,18.7
2022-07-29T00:55:03.670Z,18.7
2022-07-29T01:00:00.275Z,18.6
2022-07-29T01:05:00.136Z,18.6
2022-07-29T01:10:00.220Z,18.6
2022-07-29T01:15:00.205Z,18.6
2022-07-29T01:20:00.290Z,18.6
2022-07-29T01:25:00.213Z,18.5
2022-07-29T01:30:00.250Z,18.5
2022-07-29T01:35:00.137Z,18.5
2022-07-29T01:40:00.303Z,18.5
2022-07-29T01:45:00.162Z,18.4
2022-07-29T01:50:00.253Z,18.4
2022-07-29T01:55:00.129Z,18.4
2022-07-29T02:00:00.214Z,18.3
2022-07-29T02:05:00.259Z,18.3
2022-07-29T02:10:00.241Z,18.3
2022-07-29T02:15:00.196Z,18.2
2022-07-29T02:20:00.548Z,18.2
2022-07-29T02:25:00.177Z,18.2
2022-07-29T02:30:00.254Z,18.1
2022-07-29T02:35:00.212Z,18.1
2022-07-29T02:40:00.261Z,18
2022-07-29T02:45:00.178Z,18
2022-07-29T02:50:00.660Z,18
2022-07-29T02:55:00.233Z,17.9
2022-07-29T03:00:00.266Z,17.9
2022-07-29T03:05:00.248Z,17.8
2022-07-29T03:10:00.211Z,17.8
2022-07-29T03:15:00.268Z,17.8
2022-07-29T03:20:00.265Z,17.7
2022-07-29T03:25:00.222Z,17.7
2022-07-29T03:30:00.260Z,17.6
2022-07-29T03:35:00.202Z,17.6
2022-07-29T03:40:00.253Z,17.6
2022-07-29T03:45:00.255Z,17.5
2022-07-29T03:50:00.208Z,17.5
2022-07-29T03:55:00.227Z,17.5
2022-07-29T04:00:00.249Z,17.4
2022-07-29T04:05:00.220Z,17.4
2022-07-29T04:10:00.245Z,17.4
2022-07-29T04:15:00.258Z,17.3
2022-07-29T04:20:00.260Z,17.3
2022-07-29T04:25:03.721Z,17.2
2022-07-29T04:30:00.254Z,17.2
2022-07-29T04:35:00.222Z,17.2
2022-07-29T04:40:00.241Z,17.2
2022-07-29T04:45:01.269Z,17.2
2022-07-29T04:50:00.259Z,17.2
2022-07-29T04:55:00.283Z,17.2
2022-07-29T05:00:00.317Z,17.2
2022-07-29T05:05:00.276Z,17.2
2022-07-29T05:10:00.236Z,17.1
2022-07-29T05:15:00.175Z,17.1
2022-07-29T05:20:00.312Z,17.1
2022-07-29T05:25:02.331Z,17
2022-07-29T05:30:00.255Z,17
2022-07-29T05:35:00.197Z,17
2022-07-29T05:40:00.310Z,17
2022-07-29T05:45:00.178Z,17
2022-07-29T05:50:00.245Z,17
2022-07-29T05:55:00.269Z,17
2022-07-29T06:00:00.347Z,17
2022-07-29T06:05:00.396Z,17
2022-07-29T06:10:00.261Z,17
2022-07-29T06:15:00.216Z,17
2022-07-29T06:20:00.234Z,17.1
2022-07-29T06:25:00.218Z,17.1
2022-07-29T06:30:00.398Z,17.2
2022-07-29T06:35:37.971Z,17.3
2022-07-29T06:40:00.306Z,17.3
2022-07-29T06:45:00.220Z,17.4
2022-07-29T06:50:00.244Z,17.4
2022-07-29T06:55:00.225Z,17.5
2022-07-29T07:00:00.234Z,17.5
2022-07-29T07:05:00.255Z,17.6
2022-07-29T07:10:00.205Z,17.7
2022-07-29T07:15:00.206Z,17.8
2022-07-29T07:20:00.243Z,17.9
2022-07-29T07:25:00.215Z,18.1
2022-07-29T07:30:00.220Z,18.2
2022-07-29T07:35:00.219Z,18.3
2022-07-29T07:40:00.256Z,18.4
2022-07-29T07:45:13.078Z,18.5
2022-07-29T07:50:00.241Z,18.6
2022-07-29T07:55:00.246Z,18.8
2022-07-29T08:00:00.245Z,18.9
2022-07-29T08:05:00.162Z,19
2022-07-29T08:10:00.195Z,19.3
2022-07-29T08:15:00.276Z,19.4
2022-07-29T08:20:00.253Z,19.6
2022-07-29T08:25:00.231Z,19.7
2022-07-29T08:30:00.251Z,19.8
2022-07-29T08:35:00.232Z,19.9
2022-07-29T08:40:00.257Z,19.9
2022-07-29T08:45:00.158Z,20
2022-07-29T08:50:00.419Z,20
2022-07-29T08:55:00.255Z,20.1
2022-07-29T09:00:03.650Z,20.3
2022-07-29T09:05:00.251Z,20.3
2022-07-29T09:10:00.206Z,20.3
2022-07-29T09:15:00.235Z,20.4
2022-07-29T09:20:00.261Z,20.4
2022-07-29T09:25:00.228Z,20.5
2022-07-29T09:30:00.303Z,20.6
2022-07-29T09:35:00.177Z,20.6
2022-07-29T09:40:00.238Z,20.7
2022-07-29T09:45:00.229Z,20.8
2022-07-29T09:50:00.605Z,20.8
2022-07-29T09:55:00.236Z,20.9
2022-07-29T10:00:00.282Z,21
2022-07-29T10:05:00.169Z,21
2022-07-29T10:10:00.192Z,21
2022-07-29T10:15:00.240Z,21
2022-07-29T10:20:00.296Z,21
2022-07-29T10:25:00.262Z,21
2022-07-29T10:30:00.273Z,20.9
2022-07-29T10:35:00.238Z,20.8
2022-07-29T10:40:00.249Z,20.8
2022-07-29T10:45:00.267Z,20.7
2022-07-29T10:50:01.178Z,20.6
2022-07-29T10:55:00.236Z,20.6
2022-07-29T11:00:00.264Z,20.4
2022-07-29T11:05:00.242Z,20.4
2022-07-29T11:10:00.244Z,20.3
2022-07-29T11:15:00.401Z,20.2
2022-07-29T11:20:00.309Z,20.1
2022-07-29T11:25:00.201Z,20
2022-07-29T11:30:01.205Z,19.8
2022-07-29T11:35:00.254Z,19.8
2022-07-29T11:40:02.358Z,19.7
2022-07-29T11:50:00.244Z,19.5
2022-07-29T11:55:00.704Z,19.5
2022-07-29T12:00:09.317Z,19.4
2022-07-29T12:05:00.232Z,19.4
2022-07-29T12:07:01.822Z,19.6
2022-07-29T12:10:00.249Z,19.4
2022-07-29T12:15:00.236Z,19.3
2022-07-29T12:20:00.202Z,19.2
2022-07-29T12:25:30.035Z,19.2
2022-07-29T12:30:00.268Z,19.2
2022-07-29T12:35:00.271Z,19.2
2022-07-29T12:40:00.218Z,19.2
2022-07-29T12:45:00.178Z,19.1
2022-07-29T12:50:00.224Z,19.1
2022-07-29T12:55:00.235Z,19
2022-07-29T13:00:00.254Z,19
2022-07-29T13:05:00.257Z,19
2022-07-29T13:10:00.278Z,18.9
2022-07-29T13:15:00.201Z,18.9
2022-07-29T13:20:00.263Z,18.9
2022-07-29T13:25:00.217Z,18.9
2022-07-29T13:30:00.291Z,18.9
2022-07-29T13:35:00.205Z,19
2022-07-29T13:40:00.332Z,19
2022-07-29T13:45:00.208Z,19.1
2022-07-29T13:50:00.256Z,19.2
2022-07-29T13:55:00.224Z,19.3
2022-07-29T14:00:00.272Z,19.6
2022-07-29T14:05:02.776Z,19.8
2022-07-29T14:10:00.205Z,20
2022-07-29T14:15:00.206Z,20.2
2022-07-29T14:20:00.272Z,20.4
2022-07-29T14:25:02.329Z,20.6
2022-07-29T14:30:00.245Z,20.9
2022-07-29T14:35:00.212Z,21
2022-07-29T14:40:00.281Z,21.2
2022-07-29T14:45:00.242Z,21.3
2022-07-29T14:50:00.273Z,21.4
2022-07-29T14:55:00.207Z,21.7
2022-07-29T15:00:00.289Z,21.8
2022-07-29T15:05:00.271Z,22
2022-07-29T15:10:00.230Z,22.2
2022-07-29T15:15:00.172Z,22.3
2022-07-29T15:20:00.254Z,22.5
2022-07-29T15:25:00.236Z,22.7
2022-07-29T15:30:00.249Z,22.9
2022-07-29T15:35:00.226Z,23
2022-07-29T15:40:00.423Z,23.1
2022-07-29T15:45:00.223Z,23.2
2022-07-29T15:50:00.275Z,23.3
2022-07-29T15:55:00.206Z,23.4
2022-07-29T16:00:00.296Z,23.4
2022-07-29T16:05:00.268Z,23.5
2022-07-29T16:10:00.244Z,23.5
2022-07-29T16:15:00.404Z,23.5
2022-07-29T16:20:00.265Z,23.6
2022-07-29T16:25:00.242Z,23.6
2022-07-29T16:30:00.291Z,23.7
2022-07-29T16:35:00.239Z,23.8
2022-07-29T16:40:00.365Z,23.8
2022-07-29T16:45:00.252Z,23.9
2022-07-29T16:50:00.230Z,24
2022-07-29T16:55:00.233Z,24
2022-07-29T17:00:00.308Z,24.1
2022-07-29T17:05:00.233Z,24
2022-07-29T17:10:03.819Z,24
2022-07-29T17:15:00.171Z,23.9
2022-07-29T17:20:00.302Z,24
2022-07-29T17:25:00.170Z,23.9
2022-07-29T17:30:00.273Z,23.9
2022-07-29T17:35:00.268Z,23.8
2022-07-29T17:40:00.627Z,23.8
2022-07-29T17:45:00.262Z,23.8
2022-07-29T17:50:00.225Z,23.7
2022-07-29T17:55:00.202Z,23.7
2022-07-29T18:00:00.300Z,23.6
2022-07-29T18:05:00.201Z,23.6
2022-07-29T18:10:00.849Z,23.6
2022-07-29T18:15:00.211Z,23.5
2022-07-29T18:20:00.235Z,23.4
2022-07-29T18:25:00.241Z,23.4
2022-07-29T18:30:00.234Z,23.3
2022-07-29T18:35:00.229Z,23.2
2022-07-29T18:40:00.247Z,23.2
2022-07-29T18:45:00.240Z,23
2022-07-29T18:50:00.195Z,23
2022-07-29T18:55:00.165Z,23
2022-07-29T19:00:00.297Z,22.9
2022-07-29T19:05:00.288Z,22.8
2022-07-29T19:10:00.239Z,22.7
2022-07-29T19:15:00.275Z,22.6
2022-07-29T19:20:00.280Z,22.6
2022-07-29T19:25:00.172Z,22.4
2022-07-29T19:30:00.272Z,22.4
2022-07-29T19:35:00.257Z,22.3
2022-07-29T19:40:00.272Z,22.1
2022-07-29T19:45:00.200Z,22
2022-07-29T19:50:00.253Z,21.9
2022-07-29T19:55:05.305Z,21.8
2022-07-29T20:00:00.309Z,21.8
2022-07-29T20:05:00.173Z,21.7
2022-07-29T20:10:00.203Z,21.6
2022-07-29T20:15:00.167Z,21.5
2022-07-29T20:20:00.266Z,21.4
2022-07-29T20:25:00.258Z,21.3
2022-07-29T20:30:00.269Z,21.2
2022-07-29T20:35:00.239Z,21.1
2022-07-29T20:40:00.229Z,21
2022-07-29T20:45:00.251Z,20.9
2022-07-29T20:50:00.277Z,20.8
2022-07-29T20:55:00.187Z,20.7
2022-07-29T21:00:00.294Z,20.6
2022-07-29T21:05:00.183Z,20.5
2022-07-29T21:10:00.330Z,20.4
2022-07-29T21:15:00.218Z,20.3
2022-07-29T21:20:00.251Z,20.2
2022-07-29T21:25:00.191Z,20.2
2022-07-29T21:30:00.398Z,20.1
2022-07-29T21:35:00.191Z,20.1
2022-07-29T21:40:00.252Z,20
2022-07-29T21:45:00.182Z,20
2022-07-29T21:50:00.199Z,19.9
2022-07-29T21:55:00.223Z,19.8
2022-07-29T22:00:02.923Z,19.8
2022-07-29T22:05:00.133Z,19.8
2022-07-29T22:10:00.221Z,19.7
2022-07-29T22:15:00.175Z,19.7
2022-07-29T22:20:00.270Z,19.7
2022-07-29T22:25:00.205Z,19.6
2022-07-29T22:30:00.224Z,19.6
2022-07-29T22:35:00.222Z,19.6
2022-07-29T22:40:00.199Z,19.6
2022-07-29T22:45:00.221Z,19.6
2022-07-29T22:50:00.230Z,19.5
2022-07-29T22:55:00.276Z,19.5
2022-07-29T23:00:00.286Z,19.5
2022-07-29T23:05:00.247Z,19.4
2022-07-29T23:10:00.244Z,19.4
2022-07-29T23:15:00.405Z,19.4
2022-07-29T23:20:00.215Z,19.3
2022-07-29T23:25:00.187Z,19.2
2022-07-29T23:30:00.219Z,19.2
2022-07-29T23:35:00.202Z,19.1
2022-07-29T23:40:00.233Z,19.1
2022-07-29T23:45:00.204Z,19
2022-07-29T23:50:00.239Z,19
2022-07-29T23:55:38.145Z,19
